sensor_id;sensor_type;location;lat;lon;timestamp;P1;durP1;ratioP1;P2;durP2;ratioP2
9783;SDS011;4931;44.874;-1.092;2023-05-28T00:01:12;16.40;;;11.35;;
9783;SDS011;4931;44.874;-1.092;2023-05-28T00:03:38;17.13;;;11.25;;
9783;SDS011;4931;44.874;-1.092;2023-05-28T00:06:04;16.85;;;12.13;;
9783;SDS011;4931;44.874;-1.092;2023-05-28T00:08:30;15.43;;;11.25;;
9783;SDS011;4931;44.874;-1.092;2023-05-28T00:10:55;17.52;;;11.70;;
9783;SDS011;4931;44.874;-1.092;2023-05-28T00:13:30;16.23;;;11.77;;
9783;SDS011;4931;44.874;-1.092;2023-05-28T00:15:56;18.83;;;10.90;;
9783;SDS011;4931;44.874;-1.092;2023-05-28T00:18:22;16.98;;;11.07;;
9783;SDS011;4931;44.874;-1.092;2023-05-28T00:20:49;15.15;;;11.07;;
9783;SDS011;4931;44.874;-1.092;2023-05-28T00:23:15;20.30;;;12.35;;
9783;SDS011;4931;44.874;-1.092;2023-05-28T00:25:41;17.65;;;11.77;;
9783;SDS011;4931;44.874;-1.092;2023-05-28T00:28:07;17.70;;;11.48;;
9783;SDS011;4931;44.874;-1.092;2023-05-28T00:30:33;16.90;;;11.57;;
9783;SDS011;4931;44.874;-1.092;2023-05-28T00:32:58;22.73;;;12.98;;
9783;SDS011;4931;44.874;-1.092;2023-05-28T00:35:23;18.70;;;11.25;;
9783;SDS011;4931;44.874;-1.092;2023-05-28T00:37:50;18.38;;;11.95;;
9783;SDS011;4931;44.874;-1.092;2023-05-28T00:40:17;17.98;;;12.55;;
9783;SDS011;4931;44.874;-1.092;2023-05-28T00:42:44;17.35;;;11.50;;
9783;SDS011;4931;44.874;-1.092;2023-05-28T00:45:10;20.15;;;11.77;;
9783;SDS011;4931;44.874;-1.092;2023-05-28T00:47:39;15.52;;;11.55;;
9783;SDS011;4931;44.874;-1.092;2023-05-28T00:50:08;17.25;;;11.63;;
9783;SDS011;4931;44.874;-1.092;2023-05-28T00:52:35;15.35;;;11.30;;
9783;SDS011;4931;44.874;-1.092;2023-05-28T00:55:01;15.95;;;11.68;;
9783;SDS011;4931;44.874;-1.092;2023-05-28T00:57:29;15.60;;;11.10;;
9783;SDS011;4931;44.874;-1.092;2023-05-28T00:59:56;20.08;;;11.93;;
9783;SDS011;4931;44.874;-1.092;2023-05-28T01:02:21;16.15;;;11.13;;
9783;SDS011;4931;44.874;-1.092;2023-05-28T01:04:47;17.33;;;11.82;;
9783;SDS011;4931;44.874;-1.092;2023-05-28T01:07:13;18.08;;;11.68;;
9783;SDS011;4931;44.874;-1.092;2023-05-28T01:09:38;16.90;;;11.30;;
9783;SDS011;4931;44.874;-1.092;2023-05-28T01:12:05;16.45;;;11.30;;
9783;SDS011;4931;44.874;-1.092;2023-05-28T01:14:32;17.45;;;11.30;;
9783;SDS011;4931;44.874;-1.092;2023-05-28T01:16:58;20.83;;;11.60;;
9783;SDS011;4931;44.874;-1.092;2023-05-28T01:19:25;15.55;;;11.25;;
9783;SDS011;4931;44.874;-1.092;2023-05-28T01:21:55;19.13;;;11.32;;
9783;SDS011;4931;44.874;-1.092;2023-05-28T01:24:23;15.63;;;11.23;;
9783;SDS011;4931;44.874;-1.092;2023-05-28T01:26:49;16.38;;;11.10;;
9783;SDS011;4931;44.874;-1.092;2023-05-28T01:29:17;14.50;;;11.40;;
9783;SDS011;4931;44.874;-1.092;2023-05-28T01:31:43;15.52;;;11.65;;
9783;SDS011;4931;44.874;-1.092;2023-05-28T01:34:09;16.05;;;11.23;;
9783;SDS011;4931;44.874;-1.092;2023-05-28T01:36:36;15.68;;;11.40;;
9783;SDS011;4931;44.874;-1.092;2023-05-28T01:39:08;13.82;;;11.30;;
9783;SDS011;4931;44.874;-1.092;2023-05-28T01:41:37;18.00;;;11.70;;
9783;SDS011;4931;44.874;-1.092;2023-05-28T01:44:04;17.00;;;11.27;;
9783;SDS011;4931;44.874;-1.092;2023-05-28T01:46:32;17.15;;;11.00;;
9783;SDS011;4931;44.874;-1.092;2023-05-28T01:48:58;15.57;;;11.52;;
9783;SDS011;4931;44.874;-1.092;2023-05-28T01:51:25;15.82;;;11.05;;
9783;SDS011;4931;44.874;-1.092;2023-05-28T01:53:51;19.15;;;11.02;;
9783;SDS011;4931;44.874;-1.092;2023-05-28T01:56:17;15.52;;;11.30;;
9783;SDS011;4931;44.874;-1.092;2023-05-28T01:58:43;16.90;;;10.50;;
9783;SDS011;4931;44.874;-1.092;2023-05-28T02:01:11;15.60;;;11.15;;
9783;SDS011;4931;44.874;-1.092;2023-05-28T02:03:39;17.90;;;11.73;;
9783;SDS011;4931;44.874;-1.092;2023-05-28T02:06:05;14.60;;;10.90;;
9783;SDS011;4931;44.874;-1.092;2023-05-28T02:08:31;19.27;;;11.27;;
9783;SDS011;4931;44.874;-1.092;2023-05-28T02:10:56;13.93;;;10.55;;
9783;SDS011;4931;44.874;-1.092;2023-05-28T02:13:21;15.52;;;10.90;;
9783;SDS011;4931;44.874;-1.092;2023-05-28T02:15:47;15.90;;;11.07;;
9783;SDS011;4931;44.874;-1.092;2023-05-28T02:18:12;16.33;;;11.40;;
9783;SDS011;4931;44.874;-1.092;2023-05-28T02:20:38;16.95;;;11.27;;
9783;SDS011;4931;44.874;-1.092;2023-05-28T02:23:03;19.30;;;12.10;;
9783;SDS011;4931;44.874;-1.092;2023-05-28T02:25:29;14.07;;;11.20;;
9783;SDS011;4931;44.874;-1.092;2023-05-28T02:27:55;16.05;;;11.85;;
9783;SDS011;4931;44.874;-1.092;2023-05-28T02:30:20;18.15;;;11.80;;
9783;SDS011;4931;44.874;-1.092;2023-05-28T02:32:46;15.55;;;12.20;;
9783;SDS011;4931;44.874;-1.092;2023-05-28T02:35:11;15.43;;;11.52;;
9783;SDS011;4931;44.874;-1.092;2023-05-28T02:37:37;17.88;;;11.45;;
9783;SDS011;4931;44.874;-1.092;2023-05-28T02:40:03;17.80;;;11.23;;
9783;SDS011;4931;44.874;-1.092;2023-05-28T02:42:30;15.38;;;11.93;;
9783;SDS011;4931;44.874;-1.092;2023-05-28T02:44:55;18.27;;;12.05;;
9783;SDS011;4931;44.874;-1.092;2023-05-28T02:47:21;18.50;;;11.80;;
9783;SDS011;4931;44.874;-1.092;2023-05-28T02:49:46;15.57;;;11.60;;
9783;SDS011;4931;44.874;-1.092;2023-05-28T02:52:12;15.98;;;11.55;;
9783;SDS011;4931;44.874;-1.092;2023-05-28T02:54:37;16.42;;;11.68;;
9783;SDS011;4931;44.874;-1.092;2023-05-28T02:57:03;17.08;;;12.27;;
9783;SDS011;4931;44.874;-1.092;2023-05-28T02:59:28;17.92;;;11.85;;
9783;SDS011;4931;44.874;-1.092;2023-05-28T03:01:54;17.92;;;12.38;;
9783;SDS011;4931;44.874;-1.092;2023-05-28T03:04:19;18.38;;;12.10;;
9783;SDS011;4931;44.874;-1.092;2023-05-28T03:06:45;15.23;;;11.50;;
9783;SDS011;4931;44.874;-1.092;2023-05-28T03:09:10;18.27;;;11.23;;
9783;SDS011;4931;44.874;-1.092;2023-05-28T03:11:36;15.65;;;10.90;;
9783;SDS011;4931;44.874;-1.092;2023-05-28T03:14:01;18.30;;;11.82;;
9783;SDS011;4931;44.874;-1.092;2023-05-28T03:16:27;17.83;;;12.07;;
9783;SDS011;4931;44.874;-1.092;2023-05-28T03:18:52;16.83;;;11.23;;
9783;SDS011;4931;44.874;-1.092;2023-05-28T03:21:18;16.08;;;11.68;;
9783;SDS011;4931;44.874;-1.092;2023-05-28T03:23:43;19.17;;;11.68;;
9783;SDS011;4931;44.874;-1.092;2023-05-28T03:26:09;15.98;;;12.45;;
9783;SDS011;4931;44.874;-1.092;2023-05-28T03:28:35;16.30;;;11.63;;
9783;SDS011;4931;44.874;-1.092;2023-05-28T03:31:00;17.50;;;12.02;;
9783;SDS011;4931;44.874;-1.092;2023-05-28T03:33:26;15.60;;;12.07;;
9783;SDS011;4931;44.874;-1.092;2023-05-28T03:35:52;19.13;;;12.10;;
9783;SDS011;4931;44.874;-1.092;2023-05-28T03:38:17;16.50;;;11.73;;
9783;SDS011;4931;44.874;-1.092;2023-05-28T03:40:43;20.08;;;11.95;;
9783;SDS011;4931;44.874;-1.092;2023-05-28T03:43:09;16.38;;;11.85;;
9783;SDS011;4931;44.874;-1.092;2023-05-28T03:45:34;13.20;;;11.23;;
9783;SDS011;4931;44.874;-1.092;2023-05-28T03:48:01;16.27;;;11.57;;
9783;SDS011;4931;44.874;-1.092;2023-05-28T03:50:27;20.25;;;12.23;;
9783;SDS011;4931;44.874;-1.092;2023-05-28T03:52:53;17.70;;;11.85;;
9783;SDS011;4931;44.874;-1.092;2023-05-28T03:55:19;16.98;;;11.55;;
9783;SDS011;4931;44.874;-1.092;2023-05-28T03:57:44;19.52;;;11.90;;
9783;SDS011;4931;44.874;-1.092;2023-05-28T04:00:10;17.15;;;12.82;;
9783;SDS011;4931;44.874;-1.092;2023-05-28T04:02:36;18.65;;;13.43;;
9783;SDS011;4931;44.874;-1.092;2023-05-28T04:05:01;19.90;;;13.70;;
9783;SDS011;4931;44.874;-1.092;2023-05-28T04:07:27;19.60;;;14.43;;
9783;SDS011;4931;44.874;-1.092;2023-05-28T04:09:52;19.95;;;14.13;;
9783;SDS011;4931;44.874;-1.092;2023-05-28T04:12:18;22.48;;;14.77;;
9783;SDS011;4931;44.874;-1.092;2023-05-28T04:14:43;20.88;;;14.15;;
9783;SDS011;4931;44.874;-1.092;2023-05-28T04:17:09;22.15;;;14.43;;
9783;SDS011;4931;44.874;-1.092;2023-05-28T04:19:37;19.48;;;14.13;;
9783;SDS011;4931;44.874;-1.092;2023-05-28T04:22:03;19.00;;;13.45;;
9783;SDS011;4931;44.874;-1.092;2023-05-28T04:24:29;20.73;;;14.10;;
9783;SDS011;4931;44.874;-1.092;2023-05-28T04:26:54;21.80;;;14.00;;
9783;SDS011;4931;44.874;-1.092;2023-05-28T04:29:22;19.60;;;13.32;;
9783;SDS011;4931;44.874;-1.092;2023-05-28T04:31:50;18.08;;;13.65;;
9783;SDS011;4931;44.874;-1.092;2023-05-28T04:34:15;23.15;;;14.57;;
9783;SDS011;4931;44.874;-1.092;2023-05-28T04:36:42;19.95;;;13.50;;
9783;SDS011;4931;44.874;-1.092;2023-05-28T04:39:08;20.63;;;13.38;;
9783;SDS011;4931;44.874;-1.092;2023-05-28T04:41:34;22.58;;;14.13;;
9783;SDS011;4931;44.874;-1.092;2023-05-28T04:43:59;19.38;;;13.05;;
9783;SDS011;4931;44.874;-1.092;2023-05-28T04:46:25;21.08;;;13.43;;
9783;SDS011;4931;44.874;-1.092;2023-05-28T04:48:54;18.75;;;13.85;;
9783;SDS011;4931;44.874;-1.092;2023-05-28T04:51:20;21.60;;;14.05;;
9783;SDS011;4931;44.874;-1.092;2023-05-28T04:53:46;23.85;;;13.73;;
9783;SDS011;4931;44.874;-1.092;2023-05-28T04:56:13;23.20;;;14.73;;
9783;SDS011;4931;44.874;-1.092;2023-05-28T04:58:39;20.05;;;14.27;;
9783;SDS011;4931;44.874;-1.092;2023-05-28T05:01:05;20.17;;;14.65;;
9783;SDS011;4931;44.874;-1.092;2023-05-28T05:03:33;25.80;;;14.88;;
9783;SDS011;4931;44.874;-1.092;2023-05-28T05:05:59;20.90;;;14.32;;
9783;SDS011;4931;44.874;-1.092;2023-05-28T05:08:25;20.27;;;14.57;;
9783;SDS011;4931;44.874;-1.092;2023-05-28T05:10:51;24.30;;;15.07;;
9783;SDS011;4931;44.874;-1.092;2023-05-28T05:13:16;20.33;;;13.75;;
9783;SDS011;4931;44.874;-1.092;2023-05-28T05:15:42;20.85;;;13.52;;
9783;SDS011;4931;44.874;-1.092;2023-05-28T05:18:07;23.02;;;13.82;;
9783;SDS011;4931;44.874;-1.092;2023-05-28T05:20:33;19.48;;;13.27;;
9783;SDS011;4931;44.874;-1.092;2023-05-28T05:22:58;22.58;;;13.68;;
9783;SDS011;4931;44.874;-1.092;2023-05-28T05:25:24;18.65;;;12.93;;
9783;SDS011;4931;44.874;-1.092;2023-05-28T05:27:50;20.08;;;13.30;;
9783;SDS011;4931;44.874;-1.092;2023-05-28T05:30:16;21.50;;;13.25;;
9783;SDS011;4931;44.874;-1.092;2023-05-28T05:32:42;22.48;;;13.27;;
9783;SDS011;4931;44.874;-1.092;2023-05-28T05:35:07;19.25;;;13.50;;
9783;SDS011;4931;44.874;-1.092;2023-05-28T05:37:33;23.92;;;13.45;;
9783;SDS011;4931;44.874;-1.092;2023-05-28T05:40:01;20.15;;;13.65;;
9783;SDS011;4931;44.874;-1.092;2023-05-28T05:42:26;24.23;;;12.95;;
9783;SDS011;4931;44.874;-1.092;2023-05-28T05:44:52;21.67;;;13.27;;
9783;SDS011;4931;44.874;-1.092;2023-05-28T05:47:18;22.10;;;13.15;;
9783;SDS011;4931;44.874;-1.092;2023-05-28T05:49:43;21.67;;;13.13;;
9783;SDS011;4931;44.874;-1.092;2023-05-28T05:52:09;21.42;;;13.90;;
9783;SDS011;4931;44.874;-1.092;2023-05-28T05:54:34;19.77;;;13.20;;
9783;SDS011;4931;44.874;-1.092;2023-05-28T05:56:59;20.25;;;13.55;;
9783;SDS011;4931;44.874;-1.092;2023-05-28T05:59:27;23.92;;;13.75;;
9783;SDS011;4931;44.874;-1.092;2023-05-28T06:01:53;23.10;;;13.25;;
9783;SDS011;4931;44.874;-1.092;2023-05-28T06:04:18;20.15;;;13.60;;
9783;SDS011;4931;44.874;-1.092;2023-05-28T06:06:44;22.33;;;13.32;;
9783;SDS011;4931;44.874;-1.092;2023-05-28T06:09:10;20.65;;;13.23;;
9783;SDS011;4931;44.874;-1.092;2023-05-28T06:11:36;21.10;;;13.00;;
9783;SDS011;4931;44.874;-1.092;2023-05-28T06:14:01;19.30;;;11.90;;
9783;SDS011;4931;44.874;-1.092;2023-05-28T06:16:27;20.30;;;11.95;;
9783;SDS011;4931;44.874;-1.092;2023-05-28T06:18:53;20.63;;;12.40;;
9783;SDS011;4931;44.874;-1.092;2023-05-28T06:21:19;21.17;;;12.45;;
9783;SDS011;4931;44.874;-1.092;2023-05-28T06:23:45;17.73;;;11.55;;
9783;SDS011;4931;44.874;-1.092;2023-05-28T06:26:11;19.20;;;12.40;;
9783;SDS011;4931;44.874;-1.092;2023-05-28T06:28:37;16.40;;;11.68;;
9783;SDS011;4931;44.874;-1.092;2023-05-28T06:31:02;19.52;;;11.55;;
9783;SDS011;4931;44.874;-1.092;2023-05-28T06:33:28;16.35;;;12.23;;
9783;SDS011;4931;44.874;-1.092;2023-05-28T06:35:54;19.08;;;11.88;;
9783;SDS011;4931;44.874;-1.092;2023-05-28T06:38:19;18.05;;;10.85;;
9783;SDS011;4931;44.874;-1.092;2023-05-28T06:40:45;18.23;;;12.05;;
9783;SDS011;4931;44.874;-1.092;2023-05-28T06:43:10;17.20;;;10.63;;
9783;SDS011;4931;44.874;-1.092;2023-05-28T06:45:36;19.23;;;11.32;;
9783;SDS011;4931;44.874;-1.092;2023-05-28T06:48:01;18.70;;;10.50;;
9783;SDS011;4931;44.874;-1.092;2023-05-28T06:50:28;14.75;;;9.88;;
9783;SDS011;4931;44.874;-1.092;2023-05-28T06:52:53;16.92;;;10.10;;
9783;SDS011;4931;44.874;-1.092;2023-05-28T06:55:19;15.85;;;9.77;;
9783;SDS011;4931;44.874;-1.092;2023-05-28T06:57:45;17.58;;;10.40;;
9783;SDS011;4931;44.874;-1.092;2023-05-28T07:00:11;15.02;;;9.15;;
9783;SDS011;4931;44.874;-1.092;2023-05-28T07:02:42;13.85;;;9.57;;
9783;SDS011;4931;44.874;-1.092;2023-05-28T07:05:09;16.88;;;9.80;;
9783;SDS011;4931;44.874;-1.092;2023-05-28T07:07:36;14.93;;;9.60;;
9783;SDS011;4931;44.874;-1.092;2023-05-28T07:10:02;15.18;;;9.93;;
9783;SDS011;4931;44.874;-1.092;2023-05-28T07:12:28;15.63;;;10.02;;
9783;SDS011;4931;44.874;-1.092;2023-05-28T07:14:54;13.63;;;9.27;;
9783;SDS011;4931;44.874;-1.092;2023-05-28T07:17:20;17.35;;;9.32;;
9783;SDS011;4931;44.874;-1.092;2023-05-28T07:19:46;16.13;;;9.50;;
9783;SDS011;4931;44.874;-1.092;2023-05-28T07:22:12;16.15;;;9.55;;
9783;SDS011;4931;44.874;-1.092;2023-05-28T07:24:37;13.48;;;8.95;;
9783;SDS011;4931;44.874;-1.092;2023-05-28T07:27:03;18.20;;;9.55;;
9783;SDS011;4931;44.874;-1.092;2023-05-28T07:29:28;14.18;;;9.07;;
9783;SDS011;4931;44.874;-1.092;2023-05-28T07:31:54;15.38;;;9.13;;
9783;SDS011;4931;44.874;-1.092;2023-05-28T07:34:20;16.10;;;9.32;;
9783;SDS011;4931;44.874;-1.092;2023-05-28T07:36:46;14.60;;;9.20;;
9783;SDS011;4931;44.874;-1.092;2023-05-28T07:39:11;15.95;;;8.73;;
9783;SDS011;4931;44.874;-1.092;2023-05-28T07:41:37;15.95;;;9.32;;
9783;SDS011;4931;44.874;-1.092;2023-05-28T07:44:02;16.08;;;8.85;;
9783;SDS011;4931;44.874;-1.092;2023-05-28T07:46:28;14.50;;;8.60;;
9783;SDS011;4931;44.874;-1.092;2023-05-28T07:48:54;15.35;;;9.15;;
9783;SDS011;4931;44.874;-1.092;2023-05-28T07:51:20;15.95;;;9.15;;
9783;SDS011;4931;44.874;-1.092;2023-05-28T07:53:46;15.82;;;9.32;;
9783;SDS011;4931;44.874;-1.092;2023-05-28T07:56:11;15.35;;;8.95;;
9783;SDS011;4931;44.874;-1.092;2023-05-28T07:58:38;15.77;;;9.13;;
9783;SDS011;4931;44.874;-1.092;2023-05-28T08:01:03;14.75;;;8.73;;
9783;SDS011;4931;44.874;-1.092;2023-05-28T08:03:34;14.00;;;9.20;;
9783;SDS011;4931;44.874;-1.092;2023-05-28T08:05:59;14.85;;;8.95;;
9783;SDS011;4931;44.874;-1.092;2023-05-28T08:08:26;13.65;;;9.05;;
9783;SDS011;4931;44.874;-1.092;2023-05-28T08:10:52;12.45;;;8.57;;
9783;SDS011;4931;44.874;-1.092;2023-05-28T08:13:18;14.30;;;8.90;;
9783;SDS011;4931;44.874;-1.092;2023-05-28T08:15:43;11.55;;;8.23;;
9783;SDS011;4931;44.874;-1.092;2023-05-28T08:18:09;14.25;;;8.93;;
9783;SDS011;4931;44.874;-1.092;2023-05-28T08:20:34;15.27;;;9.13;;
9783;SDS011;4931;44.874;-1.092;2023-05-28T08:23:00;14.60;;;8.95;;
9783;SDS011;4931;44.874;-1.092;2023-05-28T08:25:27;14.38;;;8.82;;
9783;SDS011;4931;44.874;-1.092;2023-05-28T08:27:53;16.30;;;8.80;;
9783;SDS011;4931;44.874;-1.092;2023-05-28T08:30:18;12.10;;;8.63;;
9783;SDS011;4931;44.874;-1.092;2023-05-28T08:32:44;11.45;;;8.20;;
9783;SDS011;4931;44.874;-1.092;2023-05-28T08:35:10;13.70;;;8.63;;
9783;SDS011;4931;44.874;-1.092;2023-05-28T08:37:36;14.65;;;8.80;;
9783;SDS011;4931;44.874;-1.092;2023-05-28T08:40:01;14.32;;;9.02;;
9783;SDS011;4931;44.874;-1.092;2023-05-28T08:42:30;15.30;;;9.30;;
9783;SDS011;4931;44.874;-1.092;2023-05-28T08:44:56;13.10;;;8.45;;
9783;SDS011;4931;44.874;-1.092;2023-05-28T08:47:21;15.23;;;7.90;;
9783;SDS011;4931;44.874;-1.092;2023-05-28T08:49:51;15.65;;;8.43;;
9783;SDS011;4931;44.874;-1.092;2023-05-28T08:52:20;13.15;;;8.40;;
9783;SDS011;4931;44.874;-1.092;2023-05-28T08:54:47;13.68;;;8.02;;
9783;SDS011;4931;44.874;-1.092;2023-05-28T08:57:13;15.60;;;8.02;;
9783;SDS011;4931;44.874;-1.092;2023-05-28T08:59:40;14.15;;;8.18;;
9783;SDS011;4931;44.874;-1.092;2023-05-28T09:02:06;16.27;;;8.38;;
9783;SDS011;4931;44.874;-1.092;2023-05-28T09:04:33;10.60;;;8.13;;
9783;SDS011;4931;44.874;-1.092;2023-05-28T09:06:58;16.38;;;9.55;;
9783;SDS011;4931;44.874;-1.092;2023-05-28T09:09:24;22.65;;;10.25;;
9783;SDS011;4931;44.874;-1.092;2023-05-28T09:11:49;11.73;;;8.23;;
9783;SDS011;4931;44.874;-1.092;2023-05-28T09:14:17;12.57;;;8.18;;
9783;SDS011;4931;44.874;-1.092;2023-05-28T09:16:44;16.45;;;8.35;;
9783;SDS011;4931;44.874;-1.092;2023-05-28T09:19:10;13.07;;;8.05;;
9783;SDS011;4931;44.874;-1.092;2023-05-28T09:21:51;9.45;;;7.05;;
9783;SDS011;4931;44.874;-1.092;2023-05-28T09:24:25;9.30;;;7.35;;
9783;SDS011;4931;44.874;-1.092;2023-05-28T09:26:53;11.02;;;7.03;;
9783;SDS011;4931;44.874;-1.092;2023-05-28T09:29:20;12.57;;;7.43;;
9783;SDS011;4931;44.874;-1.092;2023-05-28T09:31:57;14.73;;;7.45;;
9783;SDS011;4931;44.874;-1.092;2023-05-28T09:34:27;11.30;;;7.20;;
9783;SDS011;4931;44.874;-1.092;2023-05-28T09:37:03;11.38;;;7.32;;
9783;SDS011;4931;44.874;-1.092;2023-05-28T09:39:30;11.18;;;7.63;;
9783;SDS011;4931;44.874;-1.092;2023-05-28T09:44:35;10.20;;;6.93;;
9783;SDS011;4931;44.874;-1.092;2023-05-28T09:47:12;11.43;;;6.93;;
9783;SDS011;4931;44.874;-1.092;2023-05-28T09:49:45;11.55;;;7.07;;
9783;SDS011;4931;44.874;-1.092;2023-05-28T09:52:16;12.57;;;7.25;;
9783;SDS011;4931;44.874;-1.092;2023-05-28T09:54:52;9.85;;;7.07;;
9783;SDS011;4931;44.874;-1.092;2023-05-28T09:57:29;9.98;;;6.90;;
9783;SDS011;4931;44.874;-1.092;2023-05-28T09:59:56;10.93;;;7.22;;
9783;SDS011;4931;44.874;-1.092;2023-05-28T10:02:24;11.55;;;7.03;;
9783;SDS011;4931;44.874;-1.092;2023-05-28T10:05:02;15.52;;;7.10;;
9783;SDS011;4931;44.874;-1.092;2023-05-28T10:07:37;9.63;;;6.63;;
9783;SDS011;4931;44.874;-1.092;2023-05-28T10:10:05;10.73;;;6.22;;
9783;SDS011;4931;44.874;-1.092;2023-05-28T10:12:33;9.10;;;6.07;;
9783;SDS011;4931;44.874;-1.092;2023-05-28T10:14:58;8.48;;;6.70;;
9783;SDS011;4931;44.874;-1.092;2023-05-28T10:17:25;13.98;;;6.05;;
9783;SDS011;4931;44.874;-1.092;2023-05-28T10:19:51;12.50;;;6.50;;
9783;SDS011;4931;44.874;-1.092;2023-05-28T10:22:16;11.25;;;6.70;;
9783;SDS011;4931;44.874;-1.092;2023-05-28T10:24:43;11.27;;;6.10;;
9783;SDS011;4931;44.874;-1.092;2023-05-28T10:27:13;13.15;;;6.57;;
9783;SDS011;4931;44.874;-1.092;2023-05-28T10:29:44;9.13;;;6.60;;
9783;SDS011;4931;44.874;-1.092;2023-05-28T10:32:14;8.13;;;5.78;;
9783;SDS011;4931;44.874;-1.092;2023-05-28T10:34:40;10.38;;;6.00;;
9783;SDS011;4931;44.874;-1.092;2023-05-28T10:37:07;10.48;;;7.10;;
9783;SDS011;4931;44.874;-1.092;2023-05-28T10:39:40;11.27;;;6.60;;
9783;SDS011;4931;44.874;-1.092;2023-05-28T10:42:07;8.52;;;5.43;;
9783;SDS011;4931;44.874;-1.092;2023-05-28T10:47:38;8.38;;;5.65;;
9783;SDS011;4931;44.874;-1.092;2023-05-28T10:52:33;10.05;;;6.28;;
9783;SDS011;4931;44.874;-1.092;2023-05-28T10:55:02;9.20;;;5.95;;
9783;SDS011;4931;44.874;-1.092;2023-05-28T10:57:39;9.80;;;5.65;;
9783;SDS011;4931;44.874;-1.092;2023-05-28T11:02:38;10.05;;;6.00;;
9783;SDS011;4931;44.874;-1.092;2023-05-28T11:05:06;12.45;;;6.07;;
9783;SDS011;4931;44.874;-1.092;2023-05-28T11:07:33;10.45;;;5.50;;
9783;SDS011;4931;44.874;-1.092;2023-05-28T11:10:01;8.88;;;5.07;;
9783;SDS011;4931;44.874;-1.092;2023-05-28T11:12:31;8.35;;;4.57;;
9783;SDS011;4931;44.874;-1.092;2023-05-28T11:14:57;5.60;;;4.40;;
9783;SDS011;4931;44.874;-1.092;2023-05-28T11:17:23;6.97;;;4.90;;
9783;SDS011;4931;44.874;-1.092;2023-05-28T11:19:49;11.60;;;6.95;;
9783;SDS011;4931;44.874;-1.092;2023-05-28T11:22:17;12.82;;;6.10;;
9783;SDS011;4931;44.874;-1.092;2023-05-28T11:25:03;11.60;;;6.40;;
9783;SDS011;4931;44.874;-1.092;2023-05-28T11:27:35;9.50;;;5.82;;
9783;SDS011;4931;44.874;-1.092;2023-05-28T11:30:11;11.70;;;6.68;;
9783;SDS011;4931;44.874;-1.092;2023-05-28T11:32:38;10.13;;;7.10;;
9783;SDS011;4931;44.874;-1.092;2023-05-28T11:35:05;9.13;;;5.70;;
9783;SDS011;4931;44.874;-1.092;2023-05-28T11:37:31;11.02;;;6.25;;
9783;SDS011;4931;44.874;-1.092;2023-05-28T11:40:00;11.63;;;5.80;;
9783;SDS011;4931;44.874;-1.092;2023-05-28T11:42:27;10.00;;;6.22;;
9783;SDS011;4931;44.874;-1.092;2023-05-28T11:44:53;9.13;;;6.20;;
9783;SDS011;4931;44.874;-1.092;2023-05-28T11:47:20;10.05;;;5.68;;
9783;SDS011;4931;44.874;-1.092;2023-05-28T11:49:46;8.75;;;5.70;;
9783;SDS011;4931;44.874;-1.092;2023-05-28T11:52:18;11.93;;;7.28;;
9783;SDS011;4931;44.874;-1.092;2023-05-28T11:54:53;8.77;;;5.88;;
9783;SDS011;4931;44.874;-1.092;2023-05-28T11:57:25;10.05;;;6.22;;
9783;SDS011;4931;44.874;-1.092;2023-05-28T12:00:00;9.85;;;6.78;;
9783;SDS011;4931;44.874;-1.092;2023-05-28T12:02:32;11.52;;;6.45;;
9783;SDS011;4931;44.874;-1.092;2023-05-28T12:04:59;9.70;;;6.00;;
9783;SDS011;4931;44.874;-1.092;2023-05-28T12:07:30;9.20;;;6.20;;
9783;SDS011;4931;44.874;-1.092;2023-05-28T12:10:08;10.20;;;6.10;;
9783;SDS011;4931;44.874;-1.092;2023-05-28T12:12:38;8.32;;;5.82;;
9783;SDS011;4931;44.874;-1.092;2023-05-28T12:15:05;9.73;;;6.18;;
9783;SDS011;4931;44.874;-1.092;2023-05-28T12:17:38;9.43;;;6.13;;
9783;SDS011;4931;44.874;-1.092;2023-05-28T12:22:42;9.68;;;6.05;;
9783;SDS011;4931;44.874;-1.092;2023-05-28T12:25:08;10.50;;;6.60;;
9783;SDS011;4931;44.874;-1.092;2023-05-28T12:27:35;11.70;;;6.10;;
9783;SDS011;4931;44.874;-1.092;2023-05-28T12:30:01;14.10;;;6.50;;
9783;SDS011;4931;44.874;-1.092;2023-05-28T12:32:28;8.75;;;5.68;;
9783;SDS011;4931;44.874;-1.092;2023-05-28T12:34:53;10.15;;;6.10;;
9783;SDS011;4931;44.874;-1.092;2023-05-28T12:37:21;11.50;;;6.10;;
9783;SDS011;4931;44.874;-1.092;2023-05-28T12:39:48;11.93;;;6.38;;
9783;SDS011;4931;44.874;-1.092;2023-05-28T12:42:13;9.60;;;6.15;;
9783;SDS011;4931;44.874;-1.092;2023-05-28T12:44:39;10.73;;;6.72;;
9783;SDS011;4931;44.874;-1.092;2023-05-28T12:47:04;11.02;;;6.50;;
9783;SDS011;4931;44.874;-1.092;2023-05-28T12:49:30;11.35;;;5.80;;
9783;SDS011;4931;44.874;-1.092;2023-05-28T12:51:56;7.85;;;5.78;;
9783;SDS011;4931;44.874;-1.092;2023-05-28T12:54:21;9.48;;;6.35;;
9783;SDS011;4931;44.874;-1.092;2023-05-28T12:56:47;8.85;;;5.88;;
9783;SDS011;4931;44.874;-1.092;2023-05-28T12:59:25;10.57;;;6.05;;
9783;SDS011;4931;44.874;-1.092;2023-05-28T13:01:52;10.38;;;6.40;;
9783;SDS011;4931;44.874;-1.092;2023-05-28T13:04:19;11.10;;;6.45;;
9783;SDS011;4931;44.874;-1.092;2023-05-28T13:06:46;13.10;;;6.70;;
9783;SDS011;4931;44.874;-1.092;2023-05-28T13:09:12;11.75;;;6.63;;
9783;SDS011;4931;44.874;-1.092;2023-05-28T13:11:40;12.20;;;6.97;;
9783;SDS011;4931;44.874;-1.092;2023-05-28T13:14:06;10.75;;;7.80;;
9783;SDS011;4931;44.874;-1.092;2023-05-28T13:16:32;12.25;;;7.60;;
9783;SDS011;4931;44.874;-1.092;2023-05-28T13:18:58;15.43;;;7.68;;
9783;SDS011;4931;44.874;-1.092;2023-05-28T13:21:26;11.73;;;6.90;;
9783;SDS011;4931;44.874;-1.092;2023-05-28T13:23:52;14.48;;;7.20;;
9783;SDS011;4931;44.874;-1.092;2023-05-28T13:26:18;10.80;;;6.53;;
9783;SDS011;4931;44.874;-1.092;2023-05-28T13:28:43;10.18;;;6.90;;
9783;SDS011;4931;44.874;-1.092;2023-05-28T13:31:09;18.92;;;6.80;;
9783;SDS011;4931;44.874;-1.092;2023-05-28T13:33:34;12.05;;;7.07;;
9783;SDS011;4931;44.874;-1.092;2023-05-28T13:36:00;10.48;;;7.20;;
9783;SDS011;4931;44.874;-1.092;2023-05-28T13:38:25;12.00;;;6.53;;
9783;SDS011;4931;44.874;-1.092;2023-05-28T13:40:51;12.13;;;6.82;;
9783;SDS011;4931;44.874;-1.092;2023-05-28T13:43:17;14.30;;;7.35;;
9783;SDS011;4931;44.874;-1.092;2023-05-28T13:45:43;11.18;;;6.90;;
9783;SDS011;4931;44.874;-1.092;2023-05-28T13:48:08;11.07;;;6.82;;
9783;SDS011;4931;44.874;-1.092;2023-05-28T13:50:34;9.00;;;7.10;;
9783;SDS011;4931;44.874;-1.092;2023-05-28T13:52:59;11.18;;;7.40;;
9783;SDS011;4931;44.874;-1.092;2023-05-28T13:55:26;14.25;;;7.05;;
9783;SDS011;4931;44.874;-1.092;2023-05-28T13:57:52;15.43;;;7.93;;
9783;SDS011;4931;44.874;-1.092;2023-05-28T14:00:17;10.13;;;7.05;;
9783;SDS011;4931;44.874;-1.092;2023-05-28T14:02:43;11.38;;;7.47;;
9783;SDS011;4931;44.874;-1.092;2023-05-28T14:05:09;10.38;;;7.05;;
9783;SDS011;4931;44.874;-1.092;2023-05-28T14:07:37;12.10;;;7.32;;
9783;SDS011;4931;44.874;-1.092;2023-05-28T14:10:03;12.57;;;7.32;;
9783;SDS011;4931;44.874;-1.092;2023-05-28T14:12:29;13.68;;;7.78;;
9783;SDS011;4931;44.874;-1.092;2023-05-28T14:14:54;14.02;;;6.85;;
9783;SDS011;4931;44.874;-1.092;2023-05-28T14:17:20;11.13;;;7.07;;
9783;SDS011;4931;44.874;-1.092;2023-05-28T14:19:45;11.77;;;7.40;;
9783;SDS011;4931;44.874;-1.092;2023-05-28T14:22:11;10.52;;;7.22;;
9783;SDS011;4931;44.874;-1.092;2023-05-28T14:24:36;12.35;;;7.22;;
9783;SDS011;4931;44.874;-1.092;2023-05-28T14:27:03;11.73;;;7.10;;
9783;SDS011;4931;44.874;-1.092;2023-05-28T14:29:29;12.88;;;7.32;;
9783;SDS011;4931;44.874;-1.092;2023-05-28T14:31:55;13.57;;;7.53;;
9783;SDS011;4931;44.874;-1.092;2023-05-28T14:34:20;12.35;;;6.53;;
9783;SDS011;4931;44.874;-1.092;2023-05-28T14:36:46;12.73;;;7.32;;
9783;SDS011;4931;44.874;-1.092;2023-05-28T14:39:11;12.18;;;6.75;;
9783;SDS011;4931;44.874;-1.092;2023-05-28T14:41:37;12.43;;;7.38;;
9783;SDS011;4931;44.874;-1.092;2023-05-28T14:44:02;14.93;;;7.45;;
9783;SDS011;4931;44.874;-1.092;2023-05-28T14:46:28;12.45;;;7.60;;
9783;SDS011;4931;44.874;-1.092;2023-05-28T14:48:53;10.63;;;7.40;;
9783;SDS011;4931;44.874;-1.092;2023-05-28T14:51:19;12.52;;;7.50;;
9783;SDS011;4931;44.874;-1.092;2023-05-28T14:53:44;12.30;;;7.45;;